Terminal Aerodrome Forecast
Issued by NWS Wichita, KS

Home | Current Version | Previous Version | Text Only | Print | Product List | Glossary On
Versions: 1 2 3 4 5 6 7 8 9 10 11 12 13 14 15 16 17
517
FTUS43 KICT 131740
TAFICT
TAF
KICT 131740Z 1318/1418 12009KT P6SM OVC200
     FM132000 14013KT P6SM SCT050 OVC250
     FM140000 11007KT P6SM SCT050 BKN300=

USA.gov is the U.S. government's official web portal to all federal, state and local government web resources and services.